createdAt,value
2018-11-28T00:00:20.680Z,28.07
2018-11-28T00:02:50.055Z,31.27
2018-11-28T00:05:18.955Z,33.23
2018-11-28T00:07:47.727Z,32.83
2018-11-28T00:10:16.509Z,31.37
2018-11-28T00:12:45.329Z,28.33
2018-11-28T00:15:15.200Z,31.13
2018-11-28T00:17:44.032Z,31.30
2018-11-28T00:20:14.819Z,31.53
2018-11-28T00:22:43.782Z,29.57
2018-11-28T00:25:13.418Z,31.53
2018-11-28T00:27:42.272Z,33.53
2018-11-28T00:30:15.026Z,26.70
2018-11-28T00:32:43.995Z,28.07
2018-11-28T00:35:14.613Z,30.17
2018-11-28T00:37:43.517Z,29.97
2018-11-28T00:40:14.260Z,32.50
2018-11-28T00:42:43.085Z,33.80
2018-11-28T00:45:15.813Z,34.07
2018-11-28T00:47:44.653Z,32.03
2018-11-28T00:50:16.487Z,32.23
2018-11-28T00:52:45.301Z,27.77
2018-11-28T00:55:15.958Z,30.07
2018-11-28T00:57:44.918Z,28.80
2018-11-28T01:00:16.603Z,29.67
2018-11-28T01:02:45.452Z,28.77
2018-11-28T01:05:14.875Z,30.93
2018-11-28T01:07:44.337Z,29.67
2018-11-28T01:10:14.879Z,31.37
2018-11-28T01:12:43.651Z,30.53
2018-11-28T01:15:13.508Z,30.17
2018-11-28T01:17:42.418Z,30.80
2018-11-28T01:20:17.330Z,29.77
2018-11-28T01:22:46.120Z,32.23
2018-11-28T01:25:15.954Z,34.40
2018-11-28T01:27:44.802Z,32.43
2018-11-28T01:30:14.790Z,28.03
2018-11-28T01:32:43.840Z,33.47
2018-11-28T01:35:17.415Z,33.33
2018-11-28T01:37:46.331Z,34.33
2018-11-28T01:40:19.144Z,31.07
2018-11-28T01:42:48.077Z,30.13
2018-11-28T01:45:17.911Z,32.97
2018-11-28T01:47:46.801Z,35.73
2018-11-28T01:50:17.450Z,34.50
2018-11-28T01:52:46.193Z,33.73
2018-11-28T01:55:16.482Z,34.40
2018-11-28T01:57:45.200Z,33.27
2018-11-28T02:00:16.282Z,32.43
2018-11-28T02:02:45.026Z,35.00
2018-11-28T02:05:13.876Z,33.57
2018-11-28T02:07:42.690Z,33.77
2018-11-28T02:10:16.187Z,34.23
2018-11-28T02:12:44.911Z,33.43
2018-11-28T02:15:15.788Z,36.67
2018-11-28T02:17:44.655Z,31.93
2018-11-28T02:20:15.314Z,34.00
2018-11-28T02:22:44.159Z,34.43
2018-11-28T02:25:14.915Z,33.90
2018-11-28T02:27:43.844Z,34.83
2018-11-28T02:30:18.435Z,32.50
2018-11-28T02:32:48.059Z,32.27
2018-11-28T02:35:17.301Z,31.90
2018-11-28T02:37:46.023Z,34.37
2018-11-28T02:40:15.775Z,35.43
2018-11-28T02:42:44.638Z,35.53
2018-11-28T02:45:16.266Z,31.37
2018-11-28T02:47:45.026Z,37.57
2018-11-28T02:50:13.994Z,35.23
2018-11-28T02:52:42.784Z,39.60
2018-11-28T02:55:12.574Z,35.57
2018-11-28T02:57:42.052Z,35.17
2018-11-28T03:00:13.409Z,36.83
2018-11-28T03:02:42.151Z,37.43
2018-11-28T03:05:12.059Z,36.47
2018-11-28T03:07:40.989Z,36.10
2018-11-28T03:10:11.548Z,29.87
2018-11-28T03:12:40.234Z,32.10
2018-11-28T03:15:18.394Z,37.33
2018-11-28T03:17:47.166Z,33.50
2018-11-28T03:20:15.923Z,34.90
2018-11-28T03:22:44.650Z,36.53
2018-11-28T03:25:13.461Z,35.33
2018-11-28T03:27:42.186Z,39.20
2018-11-28T03:30:15.013Z,34.77
2018-11-28T03:32:43.815Z,32.60
2018-11-28T03:35:13.781Z,34.73
2018-11-28T03:37:42.595Z,37.93
2018-11-28T03:40:11.690Z,35.60
2018-11-28T03:42:40.736Z,36.23
2018-11-28T03:45:12.771Z,37.40
2018-11-28T03:47:42.282Z,39.93
2018-11-28T03:50:12.248Z,38.43
2018-11-28T03:52:41.034Z,36.53
2018-11-28T03:55:13.056Z,40.03
2018-11-28T03:57:43.349Z,39.97
2018-11-28T04:00:16.074Z,40.07
2018-11-28T04:02:44.842Z,37.80
2018-11-28T04:05:13.736Z,35.90
2018-11-28T04:07:42.488Z,39.87
2018-11-28T04:10:12.080Z,41.80
2018-11-28T04:15:24.445Z,39.57
2018-11-28T04:17:53.180Z,38.77
2018-11-28T04:20:22.718Z,39.30
2018-11-28T04:22:51.507Z,43.07
2018-11-28T04:25:22.112Z,37.07
2018-11-28T04:27:51.023Z,39.70
2018-11-28T04:30:20.801Z,36.23
2018-11-28T04:32:50.185Z,41.10
2018-11-28T04:35:18.868Z,38.77
2018-11-28T04:37:47.628Z,38.40
2018-11-28T04:40:18.219Z,36.17
2018-11-28T04:42:47.528Z,35.23
2018-11-28T04:45:19.183Z,37.93
2018-11-28T04:47:47.920Z,36.13
2018-11-28T04:50:16.771Z,37.53
2018-11-28T04:52:45.505Z,33.87
2018-11-28T04:55:18.173Z,36.90
2018-11-28T04:57:47.157Z,38.57
2018-11-28T05:00:20.815Z,38.10
2018-11-28T05:02:49.813Z,39.57
2018-11-28T05:05:18.678Z,37.53
2018-11-28T05:07:48.273Z,38.30
2018-11-28T05:10:20.010Z,42.47
2018-11-28T05:12:48.834Z,36.47
2018-11-28T05:15:18.478Z,37.47
2018-11-28T05:17:48.130Z,37.35
2018-11-28T05:20:17.942Z,38.77
2018-11-28T05:22:46.680Z,36.10
2018-11-28T05:25:18.638Z,37.03
2018-11-28T05:27:47.810Z,40.90
2018-11-28T05:30:18.759Z,40.17
2018-11-28T05:32:47.578Z,37.97
2018-11-28T05:35:17.412Z,39.47
2018-11-28T05:37:46.357Z,42.43
2018-11-28T05:40:25.816Z,38.03
2018-11-28T05:42:54.844Z,37.37
2018-11-28T05:45:23.618Z,39.17
2018-11-28T05:47:52.347Z,39.17
2018-11-28T05:50:21.888Z,40.00
2018-11-28T05:52:50.720Z,42.30
2018-11-28T05:55:20.667Z,41.43
2018-11-28T05:57:49.327Z,40.53
2018-11-28T06:00:33.883Z,39.13
2018-11-28T06:03:02.647Z,37.13
2018-11-28T06:05:31.326Z,39.20
2018-11-28T06:08:00.060Z,39.73
2018-11-28T06:10:28.775Z,44.00
2018-11-28T06:12:57.473Z,37.77
2018-11-28T06:15:26.219Z,43.20
2018-11-28T06:17:54.970Z,43.13
2018-11-28T06:20:23.736Z,43.47
2018-11-28T06:22:52.463Z,40.57
2018-11-28T06:25:21.180Z,41.83
2018-11-28T06:27:49.895Z,43.10
2018-11-28T06:30:19.642Z,44.43
2018-11-28T06:32:51.210Z,42.53
2018-11-28T06:35:17.241Z,40.97
2018-11-28T06:37:46.492Z,43.43
2018-11-28T06:40:16.203Z,41.17
2018-11-28T06:42:46.925Z,43.90
2018-11-28T06:45:17.838Z,42.90
2018-11-28T06:47:46.558Z,41.77
2018-11-28T06:50:16.262Z,42.00
2018-11-28T06:52:46.152Z,40.93
2018-11-28T06:55:16.833Z,45.43
2018-11-28T06:57:45.640Z,41.53
2018-11-28T07:00:16.487Z,38.80
2018-11-28T07:02:45.380Z,39.93
2018-11-28T07:05:14.210Z,43.53
2018-11-28T07:07:42.979Z,41.40
2018-11-28T07:10:13.005Z,42.00
2018-11-28T07:12:41.698Z,39.20
2018-11-28T07:15:11.741Z,43.17
2018-11-28T07:17:40.946Z,40.50
2018-11-28T07:20:10.869Z,41.57
2018-11-28T07:22:39.587Z,39.93
2018-11-28T07:25:10.638Z,40.50
2018-11-28T07:27:44.851Z,43.00
2018-11-28T07:30:16.362Z,40.77
2018-11-28T07:32:45.282Z,40.67
2018-11-28T07:35:14.850Z,42.90
2018-11-28T07:37:43.584Z,41.33
2018-11-28T07:40:16.351Z,41.33
2018-11-28T07:42:48.846Z,40.23
2018-11-28T07:45:17.818Z,42.50
2018-11-28T07:47:46.531Z,39.43
2018-11-28T07:50:15.461Z,40.10
2018-11-28T07:52:44.139Z,36.97
2018-11-28T07:55:13.067Z,37.57
2018-11-28T07:57:41.847Z,39.40
2018-11-28T08:00:13.196Z,41.00
2018-11-28T08:02:42.521Z,36.50
2018-11-28T08:05:12.132Z,36.97
2018-11-28T08:07:41.029Z,38.40
2018-11-28T08:10:20.083Z,35.87
2018-11-28T08:12:49.698Z,38.77
2018-11-28T08:15:18.393Z,37.63
2018-11-28T08:17:47.138Z,40.47
2018-11-28T08:20:15.825Z,35.03
2018-11-28T08:22:44.641Z,35.63
2018-11-28T08:25:14.342Z,37.07
2018-11-28T08:27:44.282Z,37.80
2018-11-28T08:30:20.916Z,37.00
2018-11-28T08:32:49.753Z,32.43
2018-11-28T08:35:18.599Z,37.40
2018-11-28T08:37:47.413Z,33.67
2018-11-28T08:40:20.456Z,31.37
2018-11-28T08:42:49.339Z,31.60
2018-11-28T08:45:19.360Z,32.43
2018-11-28T08:47:49.139Z,31.50
2018-11-28T08:50:20.831Z,32.17
2018-11-28T08:52:49.523Z,30.83
2018-11-28T08:55:18.271Z,31.67
2018-11-28T08:57:47.007Z,28.47
2018-11-28T09:00:18.741Z,29.97
2018-11-28T09:02:48.604Z,30.97
2018-11-28T09:05:17.419Z,31.70
2018-11-28T09:07:46.123Z,28.47
2018-11-28T09:10:15.898Z,26.90
2018-11-28T09:12:44.523Z,29.97
2018-11-28T09:15:17.503Z,30.37
2018-11-28T09:17:46.247Z,28.50
2018-11-28T09:20:15.503Z,31.03
2018-11-28T09:22:44.163Z,29.50
2018-11-28T09:25:16.842Z,30.57
2018-11-28T09:27:48.477Z,31.57
2018-11-28T09:30:18.074Z,36.13
2018-11-28T09:32:47.496Z,27.10
2018-11-28T09:35:16.687Z,27.63
2018-11-28T09:37:46.173Z,30.80
2018-11-28T09:40:19.035Z,30.67
2018-11-28T09:42:48.387Z,35.03
2018-11-28T09:45:18.022Z,31.27
2018-11-28T09:47:46.783Z,30.17
2018-11-28T09:50:18.351Z,27.17
2018-11-28T09:52:47.239Z,28.07
2018-11-28T09:55:17.937Z,25.60
2018-11-28T09:57:46.973Z,28.57
2018-11-28T10:00:18.373Z,26.60
2018-11-28T10:02:47.325Z,27.17
2018-11-28T10:05:20.134Z,29.27
2018-11-28T10:07:48.873Z,27.73
2018-11-28T10:10:17.641Z,25.73
2018-11-28T10:12:46.456Z,28.07
2018-11-28T10:15:16.450Z,29.90
2018-11-28T10:17:45.296Z,26.60
2018-11-28T10:20:14.838Z,24.87
2018-11-28T10:22:43.878Z,28.93
2018-11-28T10:25:13.666Z,27.63
2018-11-28T10:27:42.970Z,26.57
2018-11-28T10:30:20.364Z,26.37
2018-11-28T10:32:49.699Z,26.63
2018-11-28T10:35:18.498Z,27.20
2018-11-28T10:37:47.350Z,26.83
2018-11-28T10:40:19.016Z,25.77
2018-11-28T10:42:48.858Z,25.10
2018-11-28T10:45:19.680Z,24.03
2018-11-28T10:47:48.521Z,27.73
2018-11-28T10:50:17.364Z,25.53
2018-11-28T10:52:46.030Z,24.50
2018-11-28T10:55:16.716Z,26.53
2018-11-28T10:57:45.548Z,23.87
2018-11-28T11:00:26.348Z,25.43
2018-11-28T11:03:00.304Z,25.20
2018-11-28T11:05:34.277Z,26.20
2018-11-28T11:08:08.323Z,25.73
2018-11-28T11:10:43.489Z,26.50
2018-11-28T11:13:16.313Z,25.20
2018-11-28T11:15:49.225Z,27.60
2018-11-28T11:18:17.927Z,25.93
2018-11-28T11:20:46.762Z,27.83
2018-11-28T11:23:15.617Z,26.03
2018-11-28T11:25:44.071Z,24.77
2018-11-28T11:28:12.897Z,26.70
2018-11-28T11:30:41.683Z,24.00
2018-11-28T11:33:10.469Z,79.17
2018-11-28T11:35:39.722Z,37.17
2018-11-28T11:38:08.513Z,30.80
2018-11-28T11:40:37.214Z,28.23
2018-11-28T11:43:06.578Z,26.27
2018-11-28T11:45:36.467Z,23.93
2018-11-28T11:48:05.640Z,27.93
2018-11-28T11:50:34.618Z,26.97
2018-11-28T11:53:07.053Z,31.47
2018-11-28T11:55:36.809Z,28.70
2018-11-28T11:58:06.066Z,32.27
2018-11-28T12:00:35.204Z,27.80
2018-11-28T12:03:06.120Z,30.40
2018-11-28T12:05:35.128Z,24.47
2018-11-28T12:08:04.019Z,30.47
2018-11-28T12:10:32.901Z,27.70
2018-11-28T12:13:01.706Z,30.50
2018-11-28T12:15:30.543Z,28.93
2018-11-28T12:17:59.445Z,24.63
2018-11-28T12:20:32.295Z,27.57
2018-11-28T12:23:01.144Z,26.10
2018-11-28T12:25:30.035Z,30.90
2018-11-28T12:27:58.863Z,32.17
2018-11-28T12:30:27.742Z,25.50
2018-11-28T12:32:56.495Z,25.27
2018-11-28T12:35:29.113Z,25.40
2018-11-28T12:38:00.588Z,26.83
2018-11-28T12:40:31.715Z,26.17
2018-11-28T12:43:00.974Z,30.07
2018-11-28T12:45:29.944Z,29.93
2018-11-28T12:47:58.798Z,28.63
2018-11-28T12:50:29.583Z,32.57
2018-11-28T12:53:00.520Z,27.30
2018-11-28T12:55:30.737Z,26.00
2018-11-28T12:57:59.767Z,28.37
2018-11-28T13:00:30.935Z,27.43
2018-11-28T13:02:59.942Z,24.57
2018-11-28T13:05:28.801Z,23.77
2018-11-28T13:07:57.637Z,23.80
2018-11-28T13:10:36.298Z,24.73
2018-11-28T13:13:06.260Z,24.70
2018-11-28T13:15:35.415Z,22.50
2018-11-28T13:18:04.252Z,27.43
2018-11-28T13:20:33.082Z,25.03
2018-11-28T13:23:01.862Z,25.60
2018-11-28T13:25:30.731Z,23.03
2018-11-28T13:27:59.565Z,24.70
2018-11-28T13:30:28.447Z,24.50
2018-11-28T13:32:57.348Z,25.43
2018-11-28T13:35:27.013Z,25.33
2018-11-28T13:38:04.029Z,23.73
2018-11-28T13:40:32.870Z,22.90
2018-11-28T13:43:01.742Z,23.53
2018-11-28T13:45:32.903Z,23.63
2018-11-28T13:48:01.779Z,22.20
2018-11-28T13:50:30.658Z,22.40
2018-11-28T13:53:00.781Z,22.87
2018-11-28T13:55:40.113Z,25.60
2018-11-28T13:58:03.662Z,21.07
2018-11-28T14:00:32.465Z,22.30
2018-11-28T14:03:01.218Z,25.03
2018-11-28T14:05:29.987Z,24.90
2018-11-28T14:07:58.750Z,22.47
2018-11-28T14:10:27.483Z,23.00
2018-11-28T14:12:56.209Z,24.93
2018-11-28T14:15:24.952Z,25.07
2018-11-28T14:17:59.485Z,25.17
2018-11-28T14:20:28.257Z,25.40
2018-11-28T14:22:57.081Z,27.53
2018-11-28T14:25:25.960Z,21.43
2018-11-28T14:27:54.822Z,21.80
2018-11-28T14:30:25.272Z,23.33
2018-11-28T14:32:53.512Z,24.90
2018-11-28T14:35:22.923Z,21.13
2018-11-28T14:37:51.798Z,24.57
2018-11-28T14:40:23.651Z,27.07
2018-11-28T14:42:55.674Z,21.53
2018-11-28T14:45:24.630Z,25.77
2018-11-28T14:47:53.472Z,26.13
2018-11-28T14:50:24.038Z,24.80
2018-11-28T14:52:53.539Z,24.93
2018-11-28T14:55:25.712Z,24.70
2018-11-28T14:57:54.505Z,28.57
2018-11-28T15:00:25.387Z,30.73
2018-11-28T15:03:03.118Z,26.63
2018-11-28T15:05:43.580Z,25.27
2018-11-28T15:08:15.285Z,31.27
2018-11-28T15:10:59.517Z,29.03
2018-11-28T15:13:28.468Z,41.03
2018-11-28T15:15:57.464Z,30.30
2018-11-28T15:18:26.386Z,29.00
2018-11-28T15:20:55.220Z,25.57
2018-11-28T15:23:24.095Z,25.80
2018-11-28T15:25:52.974Z,26.17
2018-11-28T15:28:21.896Z,26.90
2018-11-28T15:30:51.275Z,26.40
2018-11-28T15:33:20.287Z,24.30
2018-11-28T15:35:48.989Z,23.37
2018-11-28T15:38:17.723Z,27.70
2018-11-28T15:40:46.495Z,28.67
2018-11-28T15:43:15.266Z,26.33
2018-11-28T15:45:44.086Z,26.83
2018-11-28T15:48:12.911Z,27.80
2018-11-28T15:50:41.686Z,28.73
2018-11-28T15:53:10.495Z,25.13
2018-11-28T15:55:39.369Z,30.53
2018-11-28T15:58:08.186Z,30.83
2018-11-28T16:00:37.004Z,25.90
2018-11-28T16:03:06.319Z,26.37
2018-11-28T16:05:35.175Z,25.47
2018-11-28T16:08:03.997Z,27.40
2018-11-28T16:10:38.752Z,29.23
2018-11-28T16:13:07.761Z,36.57
2018-11-28T16:15:41.647Z,31.03
2018-11-28T16:18:10.390Z,32.17
2018-11-28T16:20:39.121Z,33.13
2018-11-28T16:23:08.088Z,27.13
2018-11-28T16:25:36.840Z,26.10
2018-11-28T16:28:05.766Z,27.77
2018-11-28T16:30:34.586Z,28.43
2018-11-28T16:33:03.543Z,27.67
2018-11-28T16:35:32.300Z,26.53
2018-11-28T16:38:01.066Z,28.37
2018-11-28T16:40:29.998Z,27.20
2018-11-28T16:42:58.803Z,25.87
2018-11-28T16:45:27.759Z,26.03
2018-11-28T16:47:56.462Z,26.43
2018-11-28T16:50:25.216Z,25.43
2018-11-28T16:52:53.946Z,28.43
2018-11-28T16:55:22.657Z,29.03
2018-11-28T16:57:52.735Z,27.77
2018-11-28T17:00:22.806Z,29.63
2018-11-28T17:02:52.049Z,26.73
2018-11-28T17:05:21.891Z,31.90
2018-11-28T17:07:50.910Z,28.30
2018-11-28T17:10:28.670Z,28.17
2018-11-28T17:12:58.089Z,27.00
2018-11-28T17:15:26.885Z,26.33
2018-11-28T17:17:55.692Z,27.07
2018-11-28T17:20:25.679Z,29.27
2018-11-28T17:22:55.699Z,27.43
2018-11-28T17:25:26.540Z,27.93
2018-11-28T17:27:55.295Z,29.47
2018-11-28T17:30:25.151Z,25.63
2018-11-28T17:32:54.689Z,26.50
2018-11-28T17:35:22.819Z,26.60
2018-11-28T17:37:51.824Z,29.33
2018-11-28T17:40:21.846Z,25.53
2018-11-28T17:42:52.914Z,30.67
2018-11-28T17:45:22.197Z,29.27
2018-11-28T17:47:50.925Z,30.30
2018-11-28T17:50:20.703Z,27.87
2018-11-28T17:53:20.780Z,29.57
2018-11-28T17:55:53.796Z,27.57
2018-11-28T17:58:22.659Z,26.83
2018-11-28T18:00:51.432Z,26.03
2018-11-28T18:03:22.286Z,25.80
2018-11-28T18:05:51.017Z,28.43
2018-11-28T18:08:19.793Z,24.53
2018-11-28T18:10:48.453Z,26.57
2018-11-28T18:13:19.009Z,25.63
2018-11-28T18:15:54.781Z,23.63
2018-11-28T18:18:24.882Z,23.93
2018-11-28T18:20:53.572Z,24.03
2018-11-28T18:23:22.228Z,23.73
2018-11-28T18:25:51.000Z,26.17
2018-11-28T18:28:19.771Z,23.30
2018-11-28T18:30:48.483Z,26.17
2018-11-28T18:33:17.183Z,23.77
2018-11-28T18:35:45.906Z,23.87
2018-11-28T18:38:14.583Z,23.67
2018-11-28T18:40:43.314Z,21.27
2018-11-28T18:43:12.217Z,22.60
2018-11-28T18:45:42.792Z,23.03
2018-11-28T18:48:11.538Z,23.40
2018-11-28T18:50:40.257Z,21.93
2018-11-28T18:53:08.961Z,23.57
2018-11-28T18:55:37.661Z,22.87
2018-11-28T18:58:07.759Z,25.07
2018-11-28T19:00:36.522Z,24.87
2018-11-28T19:03:06.278Z,24.23
2018-11-28T19:05:35.251Z,25.60
2018-11-28T19:08:04.125Z,25.20
2018-11-28T19:10:32.920Z,22.27
2018-11-28T19:13:01.660Z,24.03
2018-11-28T19:15:30.426Z,23.87
2018-11-28T19:17:59.633Z,25.57
2018-11-28T19:20:28.509Z,23.83
2018-11-28T19:22:57.711Z,28.60
2018-11-28T19:25:27.476Z,25.17
2018-11-28T19:27:56.177Z,27.67
2018-11-28T19:30:31.896Z,25.87
2018-11-28T19:33:00.619Z,25.33
2018-11-28T19:35:29.414Z,28.60
2018-11-28T19:37:58.227Z,28.27
2018-11-28T19:40:31.327Z,26.37
2018-11-28T19:42:59.965Z,26.57
2018-11-28T19:45:28.788Z,28.27
2018-11-28T19:47:57.498Z,29.57
2018-11-28T19:50:28.796Z,26.03
2018-11-28T19:52:57.574Z,29.37
2018-11-28T19:55:26.309Z,28.17
2018-11-28T19:57:55.074Z,31.10
2018-11-28T20:00:23.805Z,26.70
2018-11-28T20:02:52.528Z,26.90
2018-11-28T20:05:21.250Z,28.60
2018-11-28T20:07:50.689Z,31.27
2018-11-28T20:10:21.720Z,34.47
2018-11-28T20:12:50.688Z,29.53
2018-11-28T20:15:22.722Z,30.10
2018-11-28T20:17:51.798Z,28.98
2018-11-28T20:20:20.880Z,30.00
2018-11-28T20:22:49.774Z,30.63
2018-11-28T20:25:19.506Z,28.60
2018-11-28T20:27:50.808Z,27.43
2018-11-28T20:30:24.386Z,29.27
2018-11-28T20:32:53.263Z,27.70
2018-11-28T20:35:22.195Z,30.10
2018-11-28T20:37:50.888Z,31.10
2018-11-28T20:40:19.772Z,28.80
2018-11-28T20:42:49.759Z,29.73
2018-11-28T20:45:18.562Z,26.53
2018-11-28T20:47:47.313Z,27.17
2018-11-28T20:50:17.577Z,28.73
2018-11-28T20:52:48.933Z,31.07
2018-11-28T20:55:17.727Z,28.00
2018-11-28T20:57:46.501Z,29.20
2018-11-28T21:00:17.742Z,29.27
2018-11-28T21:02:46.467Z,31.47
2018-11-28T21:05:15.232Z,27.87
2018-11-28T21:07:43.996Z,29.43
2018-11-28T21:10:19.036Z,31.37
2018-11-28T21:12:47.790Z,29.53
2018-11-28T21:15:16.491Z,29.07
2018-11-28T21:17:45.789Z,29.80
2018-11-28T21:20:16.822Z,27.87
2018-11-28T21:22:47.508Z,28.77
2018-11-28T21:25:16.378Z,25.90
2018-11-28T21:27:45.098Z,28.57
2018-11-28T21:30:14.990Z,29.27
2018-11-28T21:32:44.102Z,29.17
2018-11-28T21:35:18.824Z,30.37
2018-11-28T21:37:47.515Z,28.57
2018-11-28T21:40:16.250Z,32.20
2018-11-28T21:42:44.923Z,31.60
2018-11-28T21:45:16.653Z,29.67
2018-11-28T21:47:45.425Z,28.37
2018-11-28T21:50:17.039Z,26.40
2018-11-28T21:52:45.938Z,25.90
2018-11-28T21:55:15.863Z,26.67
2018-11-28T21:57:44.584Z,27.83
2018-11-28T22:00:16.309Z,28.07
2018-11-28T22:02:46.124Z,27.00
2018-11-28T22:05:15.654Z,25.00
2018-11-28T22:07:44.441Z,28.00
2018-11-28T22:10:16.286Z,29.03
2018-11-28T22:12:45.042Z,27.50
2018-11-28T22:15:15.709Z,25.97
2018-11-28T22:17:49.325Z,26.67
2018-11-28T22:20:18.154Z,26.77
2018-11-28T22:22:46.849Z,27.67
2018-11-28T22:25:20.348Z,27.57
2018-11-28T22:27:49.131Z,25.57
2018-11-28T22:30:19.941Z,26.80
2018-11-28T22:32:48.693Z,26.73
2018-11-28T22:35:17.449Z,27.43
2018-11-28T22:37:46.214Z,25.37
2018-11-28T22:40:22.279Z,25.03
2018-11-28T22:42:50.990Z,25.93
2018-11-28T22:45:22.800Z,25.37
2018-11-28T22:47:51.525Z,24.00
2018-11-28T22:50:20.250Z,25.43
2018-11-28T22:52:48.998Z,26.07
2018-11-28T22:55:18.211Z,27.67
2018-11-28T22:57:46.879Z,25.40
2018-11-28T23:00:30.208Z,22.90
2018-11-28T23:03:04.130Z,24.97
2018-11-28T23:05:36.899Z,24.70
2018-11-28T23:08:07.281Z,25.20
2018-11-28T23:10:36.488Z,22.20
2018-11-28T23:13:05.665Z,25.13
2018-11-28T23:15:35.591Z,23.93
2018-11-28T23:18:04.301Z,26.30
2018-11-28T23:20:33.180Z,22.60
2018-11-28T23:23:01.905Z,24.13
2018-11-28T23:25:30.689Z,25.30
2018-11-28T23:27:59.366Z,24.37
2018-11-28T23:30:28.122Z,27.47
2018-11-28T23:32:56.802Z,25.23
2018-11-28T23:35:25.725Z,22.63
2018-11-28T23:37:54.421Z,22.53
2018-11-28T23:40:24.141Z,23.07
2018-11-28T23:42:53.498Z,26.17
2018-11-28T23:45:22.453Z,27.30
2018-11-28T23:47:51.318Z,23.83
2018-11-28T23:50:21.845Z,23.10
2018-11-28T23:52:51.381Z,23.17
2018-11-28T23:55:25.979Z,21.47
2018-11-28T23:57:54.939Z,24.37
